CheckWX is a tool to help pilots better visualize weather data.  It is not intended as a substitute for an official pre-flight weather briefing.

08:21:51 UTC

KRUT TAF
Rutland - Southern Vermont Regional Airport
Rutland, Vermont, USA
KRUT 190526Z 1906/2006 00000KT P6SM VCSH OVC045 FM190900 VRB03KT P6SM SCT045 FM191500 30005KT P6SM SCT200

Mar-19@
06:00 UTC

Mar-19 @ 06:00 UTC

Mar-19@
09:00 UTC

Mar-19 @ 09:00 UTC

KRUT 190526Z 1906/2006 00000KT P6SM VCSH OVC045
Cloud Levels
  • Overcast at 4,500' AGL

Mar-19@
09:00 UTC

Mar-19 @ 09:00 UTC

Mar-19@
15:00 UTC

Mar-19 @ 15:00 UTC

FM190900 VRB03KT P6SM SCT045

From

From Standard forecast or significant change

Wind
  • Variable at 3 KTS
Cloud Levels
  • Scattered at 4,500' AGL

Mar-19@
15:00 UTC

Mar-19 @ 15:00 UTC

Mar-20@
06:00 UTC

Mar-20 @ 06:00 UTC

FM191500 30005KT P6SM SCT200

From

From Standard forecast or significant change

Wind
  • 300° at 5 KTS
Cloud Levels
  • Scattered at 20,000' AGL